Time;durP1;ratioP1;P1;durP2;ratioP2;P2;SDS_P1;SDS_P2;PMS_P1;PMS_P2;Temp;Humidity;BMP_temperature;BMP_pressure;BME280_temperature;BME280_humidity;BME280_pressure;Samples;Min_cycle;Max_cycle;Signal;HPM_P1;HPM_P2
2021/03/02 00:01:33;;;;;;;44.50;18.05;;;8.80;81.10;;;;;;5094625;28;20032;-72
2021/03/02 00:04:00;;;;;;;50.88;17.30;;;8.80;81.10;;;;;;5093780;28;20051;-72
2021/03/02 00:06:26;;;;;;;50.58;18.60;;;8.80;81.00;;;;;;5094295;28;20035;-72
2021/03/02 00:08:53;;;;;;;41.88;18.02;;;8.80;81.10;;;;;;5094355;28;20111;-72
2021/03/02 00:11:19;;;;;;;36.88;15.73;;;8.80;81.10;;;;;;5093438;28;20485;-72
2021/03/02 00:13:44;;;;;;;43.63;18.58;;;8.70;81.10;;;;;;5094139;28;20093;-72
2021/03/02 00:16:11;;;;;;;44.88;15.88;;;8.70;81.10;;;;;;5094180;28;20036;-73
2021/03/02 00:18:45;;;;;;;33.58;12.60;;;8.70;81.10;;;;;;5093344;28;20024;-72
2021/03/02 00:21:17;;;;;;;44.83;15.30;;;8.70;81.80;;;;;;5094363;28;20024;-72
2021/03/02 00:23:46;;;;;;;36.90;13.38;;;8.70;81.20;;;;;;5093810;28;20042;-72
2021/03/02 00:26:15;;;;;;;42.53;17.65;;;8.70;81.20;;;;;;5093205;28;20032;-72
2021/03/02 00:28:41;;;;;;;41.42;18.05;;;8.70;81.20;;;;;;5093973;28;20032;-72
2021/03/02 00:31:07;;;;;;;47.17;15.02;;;8.70;81.30;;;;;;5093139;28;20028;-72
2021/03/02 00:33:34;;;;;;;45.63;16.38;;;8.70;81.30;;;;;;5093668;28;20028;-72
2021/03/02 00:36:00;;;;;;;60.25;16.40;;;8.70;81.30;;;;;;5093583;28;20052;-72
2021/03/02 00:38:28;;;;;;;34.45;14.10;;;8.70;81.30;;;;;;5093027;28;20032;-72
2021/03/02 00:40:54;;;;;;;75.50;16.80;;;8.70;81.40;;;;;;5093326;28;20038;-73
2021/03/02 00:43:19;;;;;;;61.65;15.45;;;8.60;81.30;;;;;;5093675;28;20032;-72
2021/03/02 00:45:45;;;;;;;44.28;15.55;;;8.60;81.30;;;;;;5092739;28;20032;-73
2021/03/02 00:48:11;;;;;;;32.25;11.27;;;8.60;81.40;;;;;;5093573;28;20052;-72
2021/03/02 00:50:37;;;;;;;49.33;13.23;;;8.60;81.30;;;;;;5075087;28;20085;-72
2021/03/02 00:53:03;;;;;;;66.03;17.33;;;8.60;81.40;;;;;;5092568;28;20023;-72
2021/03/02 00:55:30;;;;;;;55.75;16.05;;;8.60;81.40;;;;;;5092788;28;20555;-72
2021/03/02 00:57:55;;;;;;;70.43;15.15;;;8.60;81.40;;;;;;5093325;28;20111;-72
2021/03/02 01:00:28;;;;;;;76.60;16.10;;;8.60;81.30;;;;;;5074477;28;20436;-72
2021/03/02 01:02:59;;;;;;;53.60;14.35;;;8.60;81.30;;;;;;5093085;28;20032;-72
2021/03/02 01:05:24;;;;;;;44.88;14.10;;;8.60;81.30;;;;;;5074985;28;20039;-72
2021/03/02 01:07:50;;;;;;;44.60;14.20;;;8.60;81.20;;;;;;5092331;28;20028;-72
2021/03/02 01:10:22;;;;;;;56.92;15.30;;;8.60;81.20;;;;;;5075041;28;20028;-72
2021/03/02 01:12:51;;;;;;;45.13;16.20;;;8.60;81.30;;;;;;5074714;28;20039;-72
2021/03/02 01:15:18;;;;;;;43.30;12.82;;;8.60;81.30;;;;;;5074077;28;20036;-72
2021/03/02 01:17:44;;;;;;;39.90;13.57;;;8.60;81.30;;;;;;5093099;28;20035;-72
2021/03/02 01:20:10;;;;;;;30.35;10.55;;;8.60;81.30;;;;;;5092762;28;20032;-72
2021/03/02 01:22:42;;;;;;;42.40;15.75;;;8.60;81.30;;;;;;5092489;28;20028;-72
2021/03/02 01:25:12;;;;;;;49.72;15.68;;;8.60;81.30;;;;;;5092913;28;20430;-72
2021/03/02 01:27:38;;;;;;;31.80;13.10;;;8.60;81.30;;;;;;5092304;28;20028;-72
2021/03/02 01:30:09;;;;;;;42.70;15.30;;;8.60;81.20;;;;;;5092965;28;20048;-72
2021/03/02 01:32:35;;;;;;;67.05;17.45;;;8.60;81.20;;;;;;5079056;28;20028;-72
2021/03/02 01:35:01;;;;;;;49.83;16.77;;;8.60;81.10;;;;;;5091916;28;20044;-72
2021/03/02 01:37:26;;;;;;;51.95;19.45;;;8.70;81.10;;;;;;5092768;28;20035;-72
2021/03/02 01:39:53;;;;;;;54.72;17.42;;;8.60;81.00;;;;;;5092775;28;20028;-72
2021/03/02 01:42:19;;;;;;;40.20;15.95;;;8.60;81.10;;;;;;5092014;28;20028;-72
2021/03/02 01:44:44;;;;;;;52.97;18.98;;;8.70;81.10;;;;;;5092699;28;20028;-72
2021/03/02 01:47:10;;;;;;;49.42;17.35;;;8.60;81.00;;;;;;5092477;28;20024;-72
2021/03/02 01:49:36;;;;;;;42.50;14.90;;;8.70;81.10;;;;;;5096335;28;20031;-72
2021/03/02 01:52:02;;;;;;;52.60;18.15;;;8.60;81.00;;;;;;5100309;28;20036;-72
2021/03/02 01:54:28;;;;;;;54.30;18.95;;;8.70;81.10;;;;;;5092580;28;20027;-72
2021/03/02 01:56:54;;;;;;;49.30;17.40;;;8.70;81.10;;;;;;5091529;28;20052;-72
2021/03/02 01:59:20;;;;;;;45.65;17.83;;;8.70;81.10;;;;;;5092370;28;20028;-72
2021/03/02 02:01:46;;;;;;;50.35;19.65;;;8.60;81.00;;;;;;5092423;28;20506;-72
2021/03/02 02:04:20;;;;;;;48.50;18.95;;;8.70;81.00;;;;;;5091759;28;20040;-72
2021/03/02 02:06:54;;;;;;;;;;;8.60;80.80;;;;;;5092997;28;20479;-72
2021/03/02 02:09:39;;;;;;;54.38;18.25;;;8.70;80.80;;;;;;5096563;28;20282;-72
2021/03/02 02:12:09;;;;;;;57.00;19.30;;;8.70;80.60;;;;;;5096561;28;20127;-72
2021/03/02 02:14:41;;;;;;;26.83;11.23;;;8.70;80.60;;;;;;5096549;28;20040;-72
2021/03/02 02:17:16;;;;;;;50.13;16.27;;;8.60;80.70;;;;;;5095961;28;20075;-72
2021/03/02 02:20:08;;;;;;;54.55;19.60;;;8.60;80.70;;;;;;5096410;28;20488;-72
2021/03/02 02:22:53;;;;;;;50.33;18.42;;;8.60;80.80;;;;;;5084439;28;20036;-72
2021/03/02 02:25:45;;;;;;;49.88;20.10;;;8.60;80.70;;;;;;5095680;28;20119;-72
2021/03/02 02:28:13;;;;;;;40.42;17.90;;;8.60;80.60;;;;;;5064713;28;20036;-72
2021/03/02 02:30:41;;;;;;;52.92;15.73;;;8.60;80.50;;;;;;5095443;28;20039;-72
2021/03/02 02:33:13;;;;;;;53.08;17.83;;;8.60;80.60;;;;;;5096064;28;20081;-72
2021/03/02 02:36:00;;;;;;;81.50;22.30;;;8.60;80.70;;;;;;5095903;28;20043;-71
2021/03/02 02:38:27;;;;;;;67.97;19.98;;;8.60;80.60;;;;;;5095247;28;20036;-71
2021/03/02 02:40:53;;;;;;;66.72;18.33;;;8.60;80.50;;;;;;5095790;28;20036;-71
2021/03/02 02:43:20;;;;;;;45.03;14.95;;;8.60;80.50;;;;;;5095954;28;20028;-71
2021/03/02 02:45:48;;;;;;;72.03;21.08;;;8.60;80.50;;;;;;5094978;28;20036;-71
2021/03/02 02:48:14;;;;;;;42.00;11.20;;;8.60;80.40;;;;;;5095992;28;20024;-71
2021/03/02 02:50:41;;;;;;;67.78;17.13;;;8.50;80.30;;;;;;5095727;28;20031;-71
2021/03/02 02:53:07;;;;;;;38.05;14.07;;;8.50;80.40;;;;;;5094987;28;20032;-72
2021/03/02 02:55:42;;;;;;;62.40;19.52;;;8.50;80.40;;;;;;5094297;28;20056;-71
2021/03/02 02:58:09;;;;;;;36.78;13.55;;;8.50;80.40;;;;;;5091020;28;20066;-72
2021/03/02 03:00:38;;;;;;;68.85;21.15;;;8.50;80.60;;;;;;5074637;28;20028;-72
2021/03/02 03:03:10;;;;;;;83.43;18.00;;;8.50;80.40;;;;;;5078557;28;20484;-71
2021/03/02 03:05:41;;;;;;;44.45;15.95;;;8.50;80.40;;;;;;5092325;28;20036;-71
2021/03/02 03:08:12;;;;;;;75.10;18.98;;;8.50;80.30;;;;;;5081708;28;20047;-72
2021/03/02 03:10:38;;;;;;;54.22;16.05;;;8.50;80.20;;;;;;5085095;28;20036;-71
2021/03/02 03:13:06;;;;;;;74.82;18.65;;;8.50;80.20;;;;;;5074351;28;20107;-72
2021/03/02 03:15:34;;;;;;;52.50;17.05;;;8.50;80.00;;;;;;5075208;28;20036;-72
2021/03/02 03:18:10;;;;;;;49.75;15.98;;;8.50;79.90;;;;;;5074887;28;20143;-71
2021/03/02 03:20:36;;;;;;;63.65;18.90;;;8.50;79.90;;;;;;5074462;28;20044;-71
2021/03/02 03:23:04;;;;;;;42.20;15.95;;;8.40;79.70;;;;;;5075002;28;20139;-71
2021/03/02 03:25:30;;;;;;;47.00;14.65;;;8.50;79.70;;;;;;5074872;28;20056;-71
2021/03/02 03:28:00;;;;;;;62.15;17.25;;;8.40;79.80;;;;;;5073523;28;20067;-72
2021/03/02 03:30:28;;;;;;;84.18;19.17;;;8.40;79.60;;;;;;5074840;28;20047;-71
2021/03/02 03:32:59;;;;;;;29.50;10.52;;;8.40;79.70;;;;;;5074658;28;20028;-71
2021/03/02 03:35:26;;;;;;;74.78;17.42;;;8.40;79.90;;;;;;5088042;28;20047;-71
2021/03/02 03:37:52;;;;;;;60.83;12.48;;;8.40;79.70;;;;;;5074543;28;20479;-72
2021/03/02 03:40:18;;;;;;;58.42;16.23;;;8.40;79.70;;;;;;5074500;28;20116;-72
2021/03/02 03:42:44;;;;;;;31.17;13.27;;;8.40;79.80;;;;;;5074098;28;20107;-72
2021/03/02 03:45:10;;;;;;;42.13;10.25;;;8.40;79.90;;;;;;5074664;28;20103;-72
2021/03/02 03:47:40;;;;;;;65.47;15.85;;;8.30;80.00;;;;;;5074408;28;20024;-71
2021/03/02 03:50:07;;;;;;;32.28;11.10;;;8.30;80.00;;;;;;5072764;28;20041;-72
2021/03/02 03:52:36;;;;;;;49.17;14.20;;;8.30;80.00;;;;;;5074499;28;20033;-71
2021/03/02 03:55:04;;;;;;;59.28;13.52;;;8.30;79.80;;;;;;5073632;28;20028;-72
2021/03/02 03:57:30;;;;;;;25.85;10.77;;;8.40;80.00;;;;;;5073935;28;20056;-71
2021/03/02 03:59:57;;;;;;;36.83;12.80;;;8.40;80.20;;;;;;5074217;28;20486;-72
2021/03/02 04:02:23;;;;;;;58.85;13.73;;;8.30;80.10;;;;;;5073390;28;20032;-73
2021/03/02 04:04:52;;;;;;;33.90;11.45;;;8.30;80.20;;;;;;5074061;28;20024;-71
2021/03/02 04:07:19;;;;;;;38.17;11.07;;;8.40;80.10;;;;;;5073466;28;20040;-72
2021/03/02 04:09:45;;;;;;;71.28;14.93;;;8.30;79.90;;;;;;5073272;28;20033;-72
2021/03/02 04:12:12;;;;;;;65.93;13.20;;;8.30;79.90;;;;;;5074158;28;20036;-72
2021/03/02 04:14:38;;;;;;;27.70;11.48;;;8.30;79.90;;;;;;5073868;28;20464;-72
2021/03/02 04:17:04;;;;;;;31.15;14.15;;;8.30;79.90;;;;;;5073099;28;20036;-71
2021/03/02 04:19:31;;;;;;;48.65;18.55;;;8.30;79.90;;;;;;5073587;28;20029;-71
2021/03/02 04:21:56;;;;;;;56.13;18.75;;;8.30;79.90;;;;;;5074028;28;20029;-71
2021/03/02 04:24:22;;;;;;;19.48;8.85;;;8.30;79.90;;;;;;5073115;28;20629;-71
2021/03/02 04:26:48;;;;;;;48.20;16.90;;;8.30;79.90;;;;;;5073368;28;20060;-71
2021/03/02 04:29:20;;;;;;;51.92;15.95;;;8.30;80.00;;;;;;5073470;28;20036;-71
2021/03/02 04:31:45;;;;;;;40.13;12.73;;;8.30;80.00;;;;;;5073029;28;20032;-71
2021/03/02 04:34:11;;;;;;;61.92;19.83;;;8.30;80.10;;;;;;5092808;28;20020;-71
2021/03/02 04:36:37;;;;;;;41.47;15.57;;;8.30;80.00;;;;;;5092841;28;20486;-71
2021/03/02 04:39:03;;;;;;;50.22;19.35;;;8.30;79.90;;;;;;5092302;28;20044;-71
2021/03/02 04:41:29;;;;;;;43.38;16.48;;;8.20;79.70;;;;;;5093340;28;20028;-71
2021/03/02 04:43:55;;;;;;;35.33;15.35;;;8.30;79.90;;;;;;5091598;28;20036;-71
2021/03/02 04:46:23;;;;;;;48.58;19.13;;;8.30;79.90;;;;;;5081171;28;20036;-71
2021/03/02 04:48:49;;;;;;;53.90;18.70;;;8.20;79.80;;;;;;5074638;28;20035;-71
2021/03/02 04:51:15;;;;;;;55.85;21.15;;;8.30;79.90;;;;;;5073775;28;20033;-71
2021/03/02 04:53:40;;;;;;;58.58;18.70;;;8.20;79.80;;;;;;5074272;28;20499;-71
2021/03/02 04:56:06;;;;;;;67.32;23.05;;;8.20;79.80;;;;;;5071503;28;20500;-72
2021/03/02 04:58:32;;;;;;;84.68;18.95;;;8.20;79.80;;;;;;5073456;28;20078;-71
2021/03/02 05:00:57;;;;;;;60.78;18.17;;;8.20;79.70;;;;;;5087517;28;20044;-71
2021/03/02 05:03:23;;;;;;;44.28;11.10;;;8.20;79.60;;;;;;5073977;28;20381;-71
2021/03/02 05:05:49;;;;;;;85.78;19.63;;;8.20;79.60;;;;;;5073729;28;20039;-71
2021/03/02 05:08:15;;;;;;;74.32;20.42;;;8.20;79.60;;;;;;5087056;28;20037;-72
2021/03/02 05:10:43;;;;;;;73.57;20.45;;;8.20;79.60;;;;;;5073114;28;20491;-71
2021/03/02 05:13:11;;;;;;;67.03;22.17;;;8.20;79.70;;;;;;5072490;28;20024;-71
2021/03/02 05:15:37;;;;;;;72.25;24.33;;;8.20;79.60;;;;;;5072740;28;20067;-71
2021/03/02 05:18:03;;;;;;;80.22;23.17;;;8.20;79.60;;;;;;5072883;28;20054;-71
2021/03/02 05:20:29;;;;;;;127.93;27.70;;;8.10;79.50;;;;;;5072071;28;20479;-71
2021/03/02 05:22:55;;;;;;;108.28;28.02;;;8.10;79.60;;;;;;5072691;28;20059;-71
2021/03/02 05:25:20;;;;;;;78.63;26.58;;;8.10;79.60;;;;;;5072880;28;20024;-71
2021/03/02 05:27:46;;;;;;;69.78;18.98;;;8.10;79.60;;;;;;5072167;28;20024;-71
2021/03/02 05:30:15;;;;;;;44.90;14.80;;;8.10;79.70;;;;;;5072479;28;20025;-71
2021/03/02 05:32:41;;;;;;;89.30;24.50;;;8.10;79.80;;;;;;5072621;28;20067;-71
2021/03/02 05:35:07;;;;;;;50.47;17.65;;;8.10;79.90;;;;;;5071800;28;20052;-71
2021/03/02 05:37:33;;;;;;;76.15;18.75;;;8.10;80.00;;;;;;5072659;28;20028;-71
2021/03/02 05:39:58;;;;;;;39.03;15.27;;;8.10;80.00;;;;;;5072443;28;20460;-71
2021/03/02 05:42:24;;;;;;;79.03;16.90;;;8.00;80.00;;;;;;5078746;28;20445;-71
2021/03/02 05:44:50;;;;;;;125.80;19.73;;;8.10;80.10;;;;;;5079706;28;20460;-71
2021/03/02 05:47:16;;;;;;;52.90;13.82;;;8.00;79.90;;;;;;5075589;28;20044;-71
2021/03/02 05:49:43;;;;;;;67.78;16.00;;;8.10;80.00;;;;;;5088665;28;20073;-71
2021/03/02 05:52:14;;;;;;;65.78;16.33;;;8.00;79.90;;;;;;5072369;28;20037;-71
2021/03/02 05:54:40;;;;;;;63.53;15.23;;;8.10;80.70;;;;;;5071741;28;20384;-72
2021/03/02 05:57:07;;;;;;;42.80;13.13;;;8.00;79.90;;;;;;5071989;28;20056;-72
2021/03/02 05:59:33;;;;;;;25.55;9.40;;;8.10;80.00;;;;;;5072499;28;20031;-71
2021/03/02 06:02:00;;;;;;;38.70;14.13;;;8.00;80.00;;;;;;5074958;28;20036;-71
2021/03/02 06:04:26;;;;;;;59.53;17.33;;;8.00;80.10;;;;;;5072558;28;20028;-71
2021/03/02 06:07:00;;;;;;;72.25;21.38;;;8.10;80.00;;;;;;5072312;28;20074;-71
2021/03/02 06:09:26;;;;;;;74.75;21.35;;;8.00;79.90;;;;;;5071569;28;20028;-71
2021/03/02 06:12:01;;;;;;;24.75;9.15;;;8.10;79.90;;;;;;5072252;28;20021;-71
2021/03/02 06:14:28;;;;;;;48.92;14.77;;;8.10;80.00;;;;;;5072826;28;20033;-71
2021/03/02 06:16:55;;;;;;;42.80;13.90;;;8.10;79.80;;;;;;5084825;28;20047;-71
2021/03/02 06:19:40;;;;;;;48.83;14.25;;;8.10;79.90;;;;;;5072244;28;20041;-71
2021/03/02 06:22:25;;;;;;;113.20;21.15;;;8.10;79.90;;;;;;5090164;28;20051;-74
2021/03/02 06:24:51;;;;;;;79.45;19.60;;;8.00;79.70;;;;;;5087780;28;20387;-72
2021/03/02 06:27:16;;;;;;;52.33;17.17;;;8.00;79.60;;;;;;5072783;28;20025;-70
2021/03/02 06:29:42;;;;;;;53.75;16.45;;;8.10;79.90;;;;;;5086379;28;20031;-72
2021/03/02 06:32:08;;;;;;;64.68;20.05;;;8.00;79.90;;;;;;5091314;28;20020;-72
2021/03/02 06:34:34;;;;;;;101.18;17.08;;;8.00;79.90;;;;;;5089107;28;20070;-72
2021/03/02 06:37:04;;;;;;;27.67;10.32;;;8.00;79.80;;;;;;5089292;28;20039;-71
2021/03/02 06:39:35;;;;;;;70.25;13.25;;;8.10;79.90;;;;;;5090177;28;20099;-72
2021/03/02 06:42:23;;;;;;;71.80;15.45;;;8.00;79.80;;;;;;5088009;28;20383;-71
2021/03/02 06:44:49;;;;;;;66.00;15.40;;;8.00;79.70;;;;;;5086107;28;20399;-70
2021/03/02 06:47:31;;;;;;;85.85;18.00;;;8.00;79.60;;;;;;5086210;28;20028;-72
2021/03/02 06:49:57;;;;;;;103.90;15.93;;;8.00;80.00;;;;;;5089388;28;20012;-74
2021/03/02 06:52:23;;;;;;;39.15;11.23;;;8.00;79.30;;;;;;5078698;28;20056;-72
2021/03/02 06:54:50;;;;;;;25.95;10.25;;;8.00;79.40;;;;;;5086241;28;20060;-72
2021/03/02 06:57:27;;;;;;;41.40;10.82;;;7.90;79.50;;;;;;5093092;28;20542;-72
2021/03/02 06:59:57;;;;;;;161.13;19.20;;;7.90;79.50;;;;;;5093126;28;20028;-72
2021/03/02 07:02:52;;;;;;;153.80;18.48;;;7.90;79.30;;;;;;5093993;28;20027;-72
2021/03/02 07:05:18;;;;;;;119.63;18.70;;;7.90;79.30;;;;;;5075555;28;20036;-74
2021/03/02 07:07:47;;;;;;;110.93;19.08;;;7.90;79.20;;;;;;5091105;28;20028;-75
2021/03/02 07:10:14;;;;;;;95.35;18.70;;;7.80;79.60;;;;;;5093010;28;20032;-74
2021/03/02 07:12:41;;;;;;;29.55;10.68;;;7.80;79.60;;;;;;5092568;28;20028;-71
2021/03/02 07:15:11;;;;;;;18.23;6.88;;;7.80;80.00;;;;;;5092933;28;20028;-71
2021/03/02 07:17:44;;;;;;;6.03;3.70;;;7.70;80.20;;;;;;5093869;28;20434;-74
2021/03/02 07:20:12;;;;;;;56.83;16.75;;;7.80;80.70;;;;;;5087980;28;20028;-69
2021/03/02 07:22:39;;;;;;;51.03;15.70;;;7.80;80.70;;;;;;5093746;28;20110;-73
2021/03/02 07:25:10;;;;;;;13.63;5.18;;;7.70;80.70;;;;;;5091297;28;20032;-72
2021/03/02 07:27:41;;;;;;;65.07;14.85;;;7.70;80.70;;;;;;5088745;28;20028;-73
2021/03/02 07:30:10;;;;;;;66.55;15.05;;;7.70;80.60;;;;;;5073031;28;20028;-73
2021/03/02 07:32:36;;;;;;;60.15;16.40;;;7.70;80.50;;;;;;5092934;28;20044;-72
2021/03/02 07:35:03;;;;;;;18.58;7.03;;;7.70;80.70;;;;;;5092070;28;20028;-72
2021/03/02 07:37:28;;;;;;;31.35;11.52;;;7.70;80.80;;;;;;5093297;28;20024;-73
2021/03/02 07:40:09;;;;;;;8.02;4.22;;;7.70;81.00;;;;;;5091264;28;20059;-73
2021/03/02 07:42:36;;;;;;;41.33;10.43;;;7.70;81.10;;;;;;5091152;28;20135;-72
2021/03/02 07:45:12;;;;;;;30.27;12.38;;;7.70;81.10;;;;;;5091222;28;20024;-73
2021/03/02 07:47:50;;;;;;;35.50;15.40;;;7.70;81.00;;;;;;5090968;28;20421;-67
2021/03/02 07:50:18;;;;;;;39.92;14.32;;;7.70;80.90;;;;;;5093014;28;20093;-69
2021/03/02 07:52:44;;;;;;;49.47;14.60;;;7.70;80.90;;;;;;5089234;28;21815;-71
2021/03/02 07:55:19;;;;;;;44.17;16.83;;;7.70;80.80;;;;;;5095079;28;20036;-71
2021/03/02 07:57:48;;;;;;;53.13;16.20;;;7.70;80.70;;;;;;5104991;28;20075;-73
2021/03/02 08:00:13;;;;;;;49.15;19.58;;;7.70;80.70;;;;;;5104886;28;20479;-72
2021/03/02 08:02:39;;;;;;;49.80;18.42;;;7.70;80.70;;;;;;5093461;28;20027;-73
2021/03/02 08:05:26;;;;;;;52.65;19.60;;;7.70;80.70;;;;;;5082810;28;20062;-73
2021/03/02 08:08:24;;;;;;;48.35;16.83;;;7.70;80.70;;;;;;5083606;28;20027;-73
2021/03/02 08:10:57;;;;;;;30.65;12.43;;;7.70;80.60;;;;;;5094534;28;20683;-71
2021/03/02 08:13:42;;;;;;;51.47;18.95;;;7.70;80.60;;;;;;5090203;28;20032;-75
2021/03/02 08:16:13;;;;;;;43.72;16.48;;;7.70;80.70;;;;;;5095686;28;20066;-76
2021/03/02 08:18:40;;;;;;;50.30;19.92;;;7.70;80.80;;;;;;5101855;28;20027;-76
2021/03/02 08:21:10;;;;;;;40.78;14.95;;;7.70;80.70;;;;;;5096058;28;20123;-76
2021/03/02 08:23:53;;;;;;;48.97;19.55;;;7.70;80.80;;;;;;5100786;28;20023;-76
2021/03/02 08:26:22;;;;;;;36.78;14.13;;;7.70;80.70;;;;;;5102315;28;20512;-76
2021/03/02 08:29:11;;;;;;;41.30;16.85;;;7.80;80.80;;;;;;5088523;28;20384;-78
2021/03/02 08:31:39;;;;;;;43.75;16.25;;;7.80;80.90;;;;;;5085582;28;20134;-73
2021/03/02 08:34:07;;;;;;;39.47;14.70;;;7.80;80.90;;;;;;5088569;28;20069;-75
2021/03/02 08:36:34;;;;;;;37.22;12.77;;;7.80;80.90;;;;;;5091971;28;20032;-75
2021/03/02 08:39:00;;;;;;;41.20;14.82;;;7.80;81.00;;;;;;5076810;28;20024;-75
2021/03/02 08:41:31;;;;;;;59.40;19.63;;;7.80;81.10;;;;;;5086046;28;20043;-75
2021/03/02 08:43:57;;;;;;;48.03;15.63;;;7.80;81.10;;;;;;5092640;28;20432;-75
2021/03/02 08:46:24;;;;;;;29.95;9.73;;;7.90;81.10;;;;;;5082738;28;20035;-75
2021/03/02 08:48:50;;;;;;;61.38;22.02;;;7.90;81.10;;;;;;5090067;28;20027;-73
2021/03/02 08:51:20;;;;;;;44.70;17.15;;;7.90;81.10;;;;;;5101770;28;20028;-74
2021/03/02 08:53:49;;;;;;;67.47;23.75;;;7.90;81.10;;;;;;5098865;28;20390;-74
2021/03/02 08:56:15;;;;;;;70.80;25.63;;;7.90;81.10;;;;;;5089846;28;20040;-74
2021/03/02 08:58:43;;;;;;;17.63;7.15;;;7.90;81.00;;;;;;5098630;28;20450;-74
2021/03/02 09:01:09;;;;;;;53.88;20.33;;;7.90;81.00;;;;;;5086486;28;20090;-74
2021/03/02 09:03:36;;;;;;;53.53;17.98;;;8.00;81.20;;;;;;5086732;28;20028;-74
2021/03/02 09:06:18;;;;;;;75.10;29.02;;;8.00;81.30;;;;;;5083764;28;20028;-74
2021/03/02 09:08:48;;;;;;;79.78;29.30;;;8.00;81.20;;;;;;5082274;28;20502;-74
2021/03/02 09:11:14;;;;;;;57.90;20.77;;;8.00;81.10;;;;;;5080541;28;20039;-74
2021/03/02 09:13:44;;;;;;;48.40;16.55;;;8.00;81.00;;;;;;5072280;28;20092;-74
2021/03/02 09:16:28;;;;;;;25.55;10.52;;;8.10;81.10;;;;;;5072187;28;20464;-74
2021/03/02 09:19:09;;;;;;;43.20;17.98;;;8.10;81.30;;;;;;5063514;28;20031;-74
2021/03/02 09:21:36;;;;;;;43.33;14.50;;;8.10;81.20;;;;;;5075024;28;20443;-74
2021/03/02 09:24:03;;;;;;;32.15;13.82;;;8.20;81.20;;;;;;5082431;28;20024;-74
2021/03/02 09:26:30;;;;;;;49.03;16.85;;;8.20;81.20;;;;;;5091670;28;20027;-75
2021/03/02 09:29:04;;;;;;;35.72;15.88;;;8.20;81.20;;;;;;5072643;28;20067;-74
2021/03/02 09:31:30;;;;;;;;;;;8.30;81.20;;;;;;5072984;28;20105;-74
2021/03/02 09:33:57;;;;;;;38.78;14.45;;;8.30;81.20;;;;;;5090476;28;20382;-74
2021/03/02 09:36:25;;;;;;;27.45;12.02;;;8.30;81.00;;;;;;5090628;28;20051;-75
2021/03/02 09:38:52;;;;;;;14.57;6.13;;;8.30;81.10;;;;;;5102857;28;20024;-75
2021/03/02 09:41:38;;;;;;;36.22;13.98;;;8.30;81.20;;;;;;5105930;28;20036;-74
2021/03/02 09:44:23;;;;;;;37.80;14.90;;;8.40;81.30;;;;;;5085126;28;20035;-75
2021/03/02 09:46:56;;;;;;;24.85;9.60;;;8.40;81.40;;;;;;5087946;28;20394;-74
2021/03/02 09:49:53;;;;;;;44.90;19.75;;;8.40;81.50;;;;;;5080191;28;20472;-74
2021/03/02 09:52:39;;;;;;;39.65;17.23;;;8.40;81.20;;;;;;5086342;28;20017;-75
2021/03/02 09:55:14;;;;;;;19.83;8.05;;;8.40;81.00;;;;;;5095458;28;20036;-74
2021/03/02 09:58:11;;;;;;;19.38;10.10;;;8.50;81.10;;;;;;5101431;28;20096;-75
2021/03/02 10:00:52;;;;;;;40.72;17.38;;;8.50;81.20;;;;;;5097727;28;20060;-75
2021/03/02 10:03:23;;;;;;;32.47;12.45;;;8.50;81.10;;;;;;5080512;28;20086;-75
2021/03/02 10:05:59;;;;;;;37.75;14.75;;;8.50;81.10;;;;;;5102375;28;20051;-75
2021/03/02 10:08:38;;;;;;;39.97;18.55;;;8.50;81.10;;;;;;5088495;28;20092;-75
2021/03/02 10:11:21;;;;;;;46.58;16.40;;;8.50;81.00;;;;;;5090377;28;20024;-75
2021/03/02 10:13:53;;;;;;;38.47;17.98;;;8.60;81.20;;;;;;5072433;28;20036;-75
2021/03/02 10:16:35;;;;;;;43.97;19.23;;;8.50;81.10;;;;;;5071191;28;20041;-75
2021/03/02 10:19:06;;;;;;;31.08;12.75;;;8.60;80.90;;;;;;5090511;28;20031;-75
2021/03/02 10:21:52;;;;;;;48.88;19.95;;;8.60;80.90;;;;;;5091800;28;20483;-74
2021/03/02 10:24:36;;;;;;;37.13;16.25;;;8.60;80.80;;;;;;5077151;28;20032;-74
2021/03/02 10:27:13;;;;;;;42.77;19.17;;;8.70;80.80;;;;;;5099612;28;20038;-74
2021/03/02 10:29:40;;;;;;;31.25;12.88;;;8.70;81.20;;;;;;5094502;28;20278;-75
2021/03/02 10:32:06;;;;;;;35.55;15.10;;;8.70;80.50;;;;;;5094820;28;20028;-74
2021/03/02 10:34:38;;;;;;;34.20;13.27;;;8.80;80.60;;;;;;5095646;28;20464;-74
2021/03/02 10:37:05;;;;;;;44.45;18.10;;;8.80;80.50;;;;;;5095136;28;20066;-74
2021/03/02 10:39:31;;;;;;;13.73;6.22;;;8.90;80.60;;;;;;5102318;28;20070;-74
2021/03/02 10:41:58;;;;;;;37.15;16.13;;;8.90;80.50;;;;;;5094556;28;20467;-74
2021/03/02 10:44:24;;;;;;;35.65;17.05;;;8.90;80.50;;;;;;5101797;28;20028;-74
2021/03/02 10:46:49;;;;;;;36.55;18.20;;;8.90;80.40;;;;;;5094991;28;20047;-74
2021/03/02 10:49:15;;;;;;;35.28;16.20;;;9.00;80.30;;;;;;5085694;28;20433;-75
2021/03/02 10:51:41;;;;;;;16.20;7.70;;;9.00;80.30;;;;;;5096073;28;20055;-75
2021/03/02 10:54:08;;;;;;;34.85;14.20;;;9.10;80.50;;;;;;5095984;28;20040;-74
2021/03/02 10:56:34;;;;;;;22.05;10.70;;;9.10;80.50;;;;;;5095178;28;20071;-75
2021/03/02 10:58:59;;;;;;;37.65;15.25;;;9.10;80.50;;;;;;5094338;28;20051;-75
2021/03/02 11:01:25;;;;;;;35.80;13.95;;;9.20;80.50;;;;;;5098165;28;20114;-74
2021/03/02 11:03:52;;;;;;;30.45;13.73;;;9.20;80.50;;;;;;5097895;28;20064;-74
2021/03/02 11:06:20;;;;;;;34.25;16.85;;;9.20;80.50;;;;;;5090909;28;20041;-74
2021/03/02 11:08:48;;;;;;;36.78;17.05;;;9.30;80.40;;;;;;5102177;28;20024;-75
2021/03/02 11:11:17;;;;;;;42.28;19.40;;;9.30;80.20;;;;;;5098110;28;20046;-74
2021/03/02 11:13:43;;;;;;;43.40;20.25;;;9.30;80.30;;;;;;5075003;28;20089;-75
2021/03/02 11:16:10;;;;;;;37.22;16.15;;;9.30;80.30;;;;;;5056611;28;20551;-74
2021/03/02 11:18:37;;;;;;;48.95;22.13;;;9.40;80.40;;;;;;5074288;28;20384;-75
2021/03/02 11:21:02;;;;;;;26.88;13.90;;;9.40;80.50;;;;;;5075111;28;20449;-74
2021/03/02 11:23:28;;;;;;;28.77;13.18;;;9.50;80.50;;;;;;5074967;28;20036;-74
2021/03/02 11:25:54;;;;;;;26.10;10.95;;;9.50;80.50;;;;;;5083523;28;20028;-75
2021/03/02 11:28:19;;;;;;;26.40;11.75;;;9.50;80.40;;;;;;5080605;28;20762;-75
2021/03/02 11:30:46;;;;;;;45.80;19.27;;;9.60;80.40;;;;;;5080765;28;20479;-74
2021/03/02 11:33:13;;;;;;;41.20;18.95;;;9.60;80.30;;;;;;5092631;28;20038;-74
2021/03/02 11:35:39;;;;;;;39.78;19.92;;;9.60;80.30;;;;;;5074778;28;20047;-74
2021/03/02 11:38:05;;;;;;;39.05;18.25;;;9.60;80.20;;;;;;5090862;28;20445;-74
2021/03/02 11:40:32;;;;;;;39.67;18.00;;;9.70;80.30;;;;;;5091990;28;20039;-74
2021/03/02 11:42:58;;;;;;;38.35;18.52;;;9.70;80.20;;;;;;5101084;28;20034;-70
2021/03/02 11:45:29;;;;;;;37.40;16.92;;;9.80;80.20;;;;;;5089864;28;20032;-76
2021/03/02 11:47:56;;;;;;;38.83;18.25;;;9.80;80.10;;;;;;5089195;28;20070;-76
2021/03/02 11:50:22;;;;;;;42.00;18.13;;;9.80;80.10;;;;;;5093079;28;20056;-76
2021/03/02 11:52:49;;;;;;;26.83;12.75;;;9.80;80.10;;;;;;5094097;28;20028;-74
2021/03/02 11:55:16;;;;;;;28.17;12.55;;;9.90;80.60;;;;;;5092830;28;20056;-79
2021/03/02 11:57:43;;;;;;;17.30;6.40;;;9.90;79.90;;;;;;5081898;28;20052;-75
2021/03/02 12:00:32;;;;;;;39.95;17.85;;;9.90;79.90;;;;;;5087545;28;20425;-76
2021/03/02 12:02:58;;;;;;;24.70;10.10;;;10.00;79.80;;;;;;5095325;28;20046;-74
2021/03/02 12:05:23;;;;;;;22.58;10.60;;;10.00;79.80;;;;;;5093847;28;20032;-76
2021/03/02 12:07:50;;;;;;;39.85;13.80;;;10.00;79.70;;;;;;5092506;28;20030;-74
2021/03/02 12:10:17;;;;;;;38.00;18.48;;;10.00;79.70;;;;;;5093436;28;20028;-74
2021/03/02 12:12:43;;;;;;;25.67;10.30;;;10.10;79.60;;;;;;5093766;28;20024;-72
2021/03/02 12:15:10;;;;;;;16.83;7.47;;;10.10;79.60;;;;;;5090052;28;20089;-73
2021/03/02 12:17:36;;;;;;;28.25;11.80;;;10.20;79.60;;;;;;5091157;28;20035;-74
2021/03/02 12:20:04;;;;;;;27.08;12.10;;;10.20;79.40;;;;;;5091481;28;20071;-75
2021/03/02 12:22:30;;;;;;;27.25;13.55;;;10.30;79.40;;;;;;5073401;28;20042;-74
2021/03/02 12:24:56;;;;;;;31.58;16.23;;;10.30;79.20;;;;;;5089675;28;20028;-75
2021/03/02 12:27:21;;;;;;;31.33;16.63;;;10.40;78.90;;;;;;5092075;28;20383;-73
2021/03/02 12:29:50;;;;;;;26.42;13.00;;;10.40;78.50;;;;;;5091010;28;20063;-73
2021/03/02 12:32:15;;;;;;;7.53;4.28;;;10.40;78.40;;;;;;5089481;28;20372;-74
2021/03/02 12:34:41;;;;;;;17.30;7.40;;;10.50;78.70;;;;;;5093581;28;20031;-74
2021/03/02 12:37:07;;;;;;;27.65;9.93;;;10.50;78.80;;;;;;5080730;28;20075;-73
2021/03/02 12:39:33;;;;;;;17.30;7.88;;;10.60;78.70;;;;;;5085657;28;20498;-75
2021/03/02 12:41:58;;;;;;;23.48;9.45;;;10.50;78.60;;;;;;5090943;28;20032;-75
2021/03/02 12:44:25;;;;;;;22.10;9.82;;;10.60;78.60;;;;;;5090863;28;20024;-74
2021/03/02 12:46:50;;;;;;;29.17;14.80;;;10.60;78.50;;;;;;5091518;28;20066;-74
2021/03/02 12:49:16;;;;;;;28.48;13.38;;;10.80;78.40;;;;;;5091925;28;20044;-74